Time;durP1;ratioP1;P1;durP2;ratioP2;P2;SDS_P1;SDS_P2;PMS_P1;PMS_P2;Temp;Humidity;BMP_temperature;BMP_pressure;BME280_temperature;BME280_humidity;BME280_pressure;Samples;Min_cycle;Max_cycle;Signal;HPM_P1;HPM_P2
2022/09/01 00:01:42;;;;;;;1.48;1.00;;;17.70;90.90;;;;;;5031494;28;20057;-69
2022/09/01 00:04:12;;;;;;;1.83;1.02;;;17.70;90.80;;;;;;5031229;28;20038;-69
2022/09/01 00:06:39;;;;;;;1.83;1.13;;;17.70;90.80;;;;;;5031584;28;20119;-69
2022/09/01 00:09:09;;;;;;;2.00;1.35;;;17.70;90.80;;;;;;5023409;28;20026;-69
2022/09/01 00:11:35;;;;;;;2.28;1.23;;;17.60;90.70;;;;;;5021948;28;20049;-69
2022/09/01 00:14:02;;;;;;;2.00;1.00;;;17.60;90.70;;;;;;5023936;28;20112;-70
2022/09/01 00:16:28;;;;;;;1.23;1.02;;;17.60;90.60;;;;;;5044652;28;20086;-69
2022/09/01 00:18:54;;;;;;;3.35;1.42;;;17.60;90.60;;;;;;5025526;28;20033;-69
2022/09/01 00:21:27;;;;;;;2.50;1.10;;;17.60;90.60;;;;;;5026902;28;20072;-69
2022/09/01 00:23:53;;;;;;;1.90;1.10;;;17.60;90.50;;;;;;5033685;28;20026;-70
2022/09/01 00:26:18;;;;;;;3.13;1.38;;;17.60;90.50;;;;;;5025809;28;20040;-69
2022/09/01 00:28:44;;;;;;;1.45;1.10;;;17.60;90.50;;;;;;5030839;28;20042;-69
2022/09/01 00:31:10;;;;;;;1.48;1.10;;;17.60;90.40;;;;;;5033764;28;20025;-69
2022/09/01 00:33:36;;;;;;;1.60;1.10;;;17.60;90.40;;;;;;5031955;28;20036;-70
2022/09/01 00:36:04;;;;;;;1.90;1.02;;;17.60;90.30;;;;;;5032819;28;20041;-71
2022/09/01 00:38:30;;;;;;;1.75;1.10;;;17.60;90.30;;;;;;5031829;28;20018;-69
2022/09/01 00:40:55;;;;;;;1.10;0.90;;;17.60;90.30;;;;;;5031572;28;20492;-70
2022/09/01 00:43:37;;;;;;;2.13;1.20;;;17.60;90.30;;;;;;5017680;28;20430;-69
2022/09/01 00:46:09;;;;;;;1.88;1.50;;;17.50;90.30;;;;;;5033052;28;20039;-71
2022/09/01 00:48:36;;;;;;;2.90;1.77;;;17.50;90.20;;;;;;5032568;28;20036;-70
2022/09/01 00:51:03;;;;;;;1.98;1.00;;;17.60;90.30;;;;;;5032111;28;20049;-70
2022/09/01 00:53:30;;;;;;;1.80;1.10;;;17.50;90.40;;;;;;5032361;28;20029;-70
2022/09/01 00:55:55;;;;;;;3.88;1.20;;;17.50;90.30;;;;;;5032379;28;20045;-71
2022/09/01 00:58:21;;;;;;;1.73;1.10;;;17.50;90.30;;;;;;5030597;28;20476;-70
2022/09/01 01:00:50;;;;;;;2.88;1.52;;;17.50;90.30;;;;;;5032962;28;20116;-71
2022/09/01 01:03:16;;;;;;;1.13;0.98;;;17.50;90.30;;;;;;5032464;28;20029;-71
2022/09/01 01:05:47;;;;;;;5.45;1.95;;;17.50;90.30;;;;;;5033213;28;20080;-70
2022/09/01 01:08:18;;;;;;;1.00;0.90;;;17.50;90.40;;;;;;5032250;28;20021;-70
2022/09/01 01:10:44;;;;;;;1.45;0.90;;;17.50;90.30;;;;;;5029119;28;20124;-71
2022/09/01 01:13:14;;;;;;;2.25;1.23;;;17.50;90.40;;;;;;5032496;28;20572;-69
2022/09/01 01:15:42;;;;;;;2.03;1.00;;;17.50;90.40;;;;;;5028022;28;20091;-71
2022/09/01 01:18:11;;;;;;;1.77;1.10;;;17.50;90.40;;;;;;5032049;28;20056;-70
2022/09/01 01:24:05;;;;;;;1.77;1.00;;;17.40;90.50;;;;;;5013736;28;20100;-70
2022/09/01 01:26:31;;;;;;;1.63;1.00;;;17.40;90.60;;;;;;5038284;28;20025;-71
2022/09/01 01:29:00;;;;;;;1.73;1.15;;;17.30;90.70;;;;;;4988879;28;1183423;-71
2022/09/01 01:31:26;;;;;;;2.25;1.35;;;17.30;90.80;;;;;;5018537;28;20026;-70
2022/09/01 01:33:54;;;;;;;1.83;0.98;;;17.30;90.90;;;;;;5029657;28;20025;-70
2022/09/01 01:36:31;;;;;;;1.75;1.02;;;17.30;91.10;;;;;;5035681;28;20030;-71
2022/09/01 01:39:04;;;;;;;3.35;1.10;;;17.30;91.20;;;;;;5034719;28;20036;-71
2022/09/01 01:41:32;;;;;;;2.17;1.00;;;17.20;91.20;;;;;;5043616;28;20029;-71
2022/09/01 01:44:00;;;;;;;2.47;1.10;;;17.20;91.40;;;;;;5034020;28;20033;-71
2022/09/01 01:46:26;;;;;;;2.08;1.05;;;17.10;91.40;;;;;;5023418;28;20028;-71
2022/09/01 01:48:52;;;;;;;1.73;1.13;;;17.20;91.60;;;;;;5033639;28;20026;-71
2022/09/01 01:51:23;;;;;;;1.75;1.15;;;17.10;91.60;;;;;;5040271;28;20327;-71
2022/09/01 01:53:51;;;;;;;1.33;1.20;;;17.10;91.80;;;;;;5039500;28;20029;-71
2022/09/01 01:56:18;;;;;;;2.90;0.98;;;17.10;91.90;;;;;;5031705;28;20038;-71
2022/09/01 01:58:44;;;;;;;1.65;1.08;;;17.00;91.90;;;;;;5033074;28;20032;-70
2022/09/01 02:01:11;;;;;;;2.85;1.20;;;17.10;92.10;;;;;;5031896;28;20059;-71
2022/09/01 02:03:37;;;;;;;2.08;1.17;;;17.00;92.10;;;;;;5031883;28;20037;-71
2022/09/01 02:06:10;;;;;;;2.00;1.08;;;17.00;92.20;;;;;;5030430;28;20388;-70
2022/09/01 02:08:39;;;;;;;1.55;0.95;;;17.00;92.30;;;;;;5030875;28;20064;-71
2022/09/01 02:11:07;;;;;;;3.80;1.55;;;17.00;92.40;;;;;;5033400;28;20053;-71
2022/09/01 02:13:34;;;;;;;2.17;1.10;;;17.00;92.50;;;;;;5023277;28;20507;-71
2022/09/01 02:16:11;;;;;;;1.13;1.00;;;17.00;92.60;;;;;;5030512;28;20051;-71
2022/09/01 02:18:41;;;;;;;3.25;1.67;;;16.90;92.60;;;;;;5026736;28;20053;-71
2022/09/01 02:21:09;;;;;;;1.40;0.88;;;17.00;92.70;;;;;;5032524;28;20513;-71
2022/09/01 02:23:37;;;;;;;2.33;1.30;;;16.90;92.70;;;;;;5024761;28;20025;-71
2022/09/01 02:26:05;;;;;;;1.27;0.98;;;16.90;92.80;;;;;;5033310;28;20034;-71
2022/09/01 02:28:35;;;;;;;2.50;1.10;;;16.90;92.90;;;;;;5007950;28;20045;-71
2022/09/01 02:31:02;;;;;;;1.33;1.10;;;16.90;93.00;;;;;;5015107;28;20026;-71
2022/09/01 02:33:29;;;;;;;3.28;1.10;;;16.90;93.00;;;;;;5030655;28;20040;-70
2022/09/01 02:35:58;;;;;;;2.53;1.13;;;16.80;93.20;;;;;;5028171;28;20481;-70
2022/09/01 02:38:28;;;;;;;5.38;1.70;;;16.80;93.10;;;;;;5023057;28;20079;-72
2022/09/01 02:40:57;;;;;;;1.60;1.00;;;16.80;93.20;;;;;;5011426;28;20117;-72
2022/09/01 02:43:27;;;;;;;1.58;1.10;;;16.70;93.30;;;;;;5020644;28;20045;-72
2022/09/01 02:45:56;;;;;;;2.60;1.30;;;16.70;93.30;;;;;;5013207;28;20022;-71
2022/09/01 02:48:31;;;;;;;2.13;1.13;;;16.70;93.40;;;;;;5031618;28;20041;-72
2022/09/01 02:51:00;;;;;;;1.75;1.00;;;16.70;93.40;;;;;;5031776;28;20059;-72
2022/09/01 02:53:27;;;;;;;2.20;1.10;;;16.60;93.50;;;;;;5021167;28;20030;-71
2022/09/01 02:55:56;;;;;;;1.38;1.02;;;16.60;93.60;;;;;;5026994;28;20064;-71
2022/09/01 02:58:22;;;;;;;2.30;1.10;;;16.50;93.60;;;;;;5031411;28;20024;-72
2022/09/01 03:00:53;;;;;;;1.48;0.90;;;16.50;93.70;;;;;;5028444;28;20400;-72
2022/09/01 03:03:20;;;;;;;1.83;0.95;;;16.50;93.80;;;;;;5031205;28;20025;-71
2022/09/01 03:05:46;;;;;;;2.60;1.02;;;16.40;93.90;;;;;;5028324;28;20591;-72
2022/09/01 03:08:15;;;;;;;2.22;1.23;;;16.40;93.90;;;;;;5028778;28;20041;-72
2022/09/01 03:10:43;;;;;;;1.77;1.40;;;16.40;94.10;;;;;;5024761;28;20044;-71
2022/09/01 03:13:15;;;;;;;1.90;1.20;;;16.30;94.20;;;;;;5034066;28;20033;-71
2022/09/01 03:15:42;;;;;;;3.22;1.15;;;16.30;94.30;;;;;;5024568;28;20689;-71
2022/09/01 03:18:09;;;;;;;2.50;1.30;;;16.30;94.40;;;;;;5031332;28;20031;-71
2022/09/01 03:20:38;;;;;;;3.22;1.42;;;16.20;94.50;;;;;;5031798;28;20037;-71
2022/09/01 03:23:07;;;;;;;2.63;1.15;;;16.20;94.50;;;;;;5030438;28;20026;-71
2022/09/01 03:25:35;;;;;;;1.77;1.40;;;16.10;94.60;;;;;;5032092;28;20110;-71
2022/09/01 03:28:02;;;;;;;1.25;1.10;;;16.10;94.70;;;;;;5034232;28;20048;-71
2022/09/01 03:30:32;;;;;;;2.65;1.35;;;16.10;94.70;;;;;;5029071;28;20032;-71
2022/09/01 03:33:00;;;;;;;2.10;1.20;;;16.10;94.90;;;;;;5024546;28;20510;-71
2022/09/01 03:35:27;;;;;;;2.42;1.25;;;16.00;94.90;;;;;;5014033;28;20038;-71
2022/09/01 03:37:57;;;;;;;1.92;0.90;;;16.00;95.00;;;;;;5025473;28;20030;-72
2022/09/01 03:40:26;;;;;;;3.33;1.20;;;15.90;95.20;;;;;;5020960;28;20038;-72
2022/09/01 03:42:52;;;;;;;2.30;1.20;;;15.90;95.20;;;;;;5031263;28;20049;-72
2022/09/01 03:45:19;;;;;;;3.10;1.60;;;15.90;95.30;;;;;;5030675;28;20036;-71
2022/09/01 03:47:45;;;;;;;1.98;1.17;;;15.80;95.40;;;;;;5030706;28;20035;-71
2022/09/01 03:50:21;;;;;;;2.47;1.20;;;15.80;95.40;;;;;;5043634;28;20115;-71
2022/09/01 03:52:51;;;;;;;2.92;1.27;;;15.80;95.50;;;;;;5023031;28;20121;-72
2022/09/01 03:55:25;;;;;;;3.97;1.40;;;15.80;95.50;;;;;;5031122;28;20528;-72
2022/09/01 03:57:56;;;;;;;3.40;1.17;;;15.70;95.50;;;;;;5027065;28;20045;-71
2022/09/01 04:00:28;;;;;;;2.08;1.23;;;15.80;95.50;;;;;;5020787;28;20040;-72
2022/09/01 04:02:57;;;;;;;1.92;1.38;;;15.70;95.60;;;;;;5029994;28;20030;-72
2022/09/01 04:05:27;;;;;;;2.47;1.40;;;15.70;95.70;;;;;;5029054;28;20052;-72
2022/09/01 04:07:55;;;;;;;3.58;1.60;;;15.70;95.80;;;;;;5045097;28;20120;-71
2022/09/01 04:10:21;;;;;;;2.53;1.20;;;15.60;95.90;;;;;;5031491;28;20408;-71
2022/09/01 04:12:48;;;;;;;2.58;1.52;;;15.60;96.00;;;;;;5029124;28;20022;-71
2022/09/01 04:15:16;;;;;;;2.22;1.50;;;15.50;96.10;;;;;;5031444;28;20453;-71
2022/09/01 04:18:08;;;;;;;2.15;1.42;;;15.50;96.20;;;;;;5036856;28;20057;-71
2022/09/01 04:20:46;;;;;;;2.33;1.48;;;15.50;96.30;;;;;;5031261;28;20148;-71
2022/09/01 04:23:19;;;;;;;3.17;1.55;;;15.40;96.30;;;;;;5028171;28;20065;-71
2022/09/01 04:25:49;;;;;;;3.88;1.60;;;15.40;96.50;;;;;;5016752;28;20068;-71
2022/09/01 04:28:21;;;;;;;3.33;1.60;;;15.40;96.50;;;;;;5031848;28;20141;-71
2022/09/01 04:30:56;;;;;;;1.85;1.40;;;15.30;96.50;;;;;;5031485;28;20025;-70
2022/09/01 04:33:26;;;;;;;;;;;15.30;96.90;;;;;;5037244;28;20129;-72
2022/09/01 04:35:56;;;;;;;4.43;1.60;;;15.20;96.80;;;;;;5051350;28;20348;-73
2022/09/01 04:38:24;;;;;;;2.30;1.65;;;15.10;96.70;;;;;;5030291;28;20033;-73
2022/09/01 04:40:51;;;;;;;3.42;1.55;;;15.10;96.90;;;;;;5030472;28;20036;-73
2022/09/01 04:43:17;;;;;;;3.20;1.50;;;15.10;96.90;;;;;;5021411;28;20088;-73
2022/09/01 04:45:44;;;;;;;2.60;1.40;;;15.10;97.00;;;;;;5022658;28;20029;-72
2022/09/01 04:48:10;;;;;;;2.58;1.50;;;15.10;97.00;;;;;;5034067;28;20534;-73
2022/09/01 04:50:36;;;;;;;5.60;1.70;;;15.10;97.20;;;;;;5022225;28;20068;-73
2022/09/01 04:53:05;;;;;;;2.67;1.83;;;15.10;97.20;;;;;;5017885;28;20080;-73
2022/09/01 04:55:31;;;;;;;2.88;1.33;;;15.10;97.20;;;;;;5011493;28;20080;-74
2022/09/01 04:57:58;;;;;;;3.17;1.77;;;15.10;97.20;;;;;;5027619;28;20026;-73
2022/09/01 05:00:26;;;;;;;3.42;1.40;;;15.10;97.30;;;;;;5014605;28;20385;-73
2022/09/01 05:03:03;;;;;;;4.03;1.50;;;15.10;97.30;;;;;;5036921;28;20108;-71
2022/09/01 05:05:41;;;;;;;2.80;1.48;;;15.10;97.30;;;;;;5034925;28;20029;-72
2022/09/01 05:08:12;;;;;;;3.30;1.60;;;15.10;97.30;;;;;;5032720;28;20417;-73
2022/09/01 05:10:43;;;;;;;3.88;1.70;;;15.10;97.30;;;;;;5034869;28;20029;-73
2022/09/01 05:13:12;;;;;;;3.80;1.63;;;15.10;97.40;;;;;;5025660;28;20460;-73
2022/09/01 05:15:45;;;;;;;3.85;1.50;;;15.10;97.40;;;;;;5014688;28;20092;-72
2022/09/01 05:18:22;;;;;;;4.70;1.73;;;15.10;97.50;;;;;;5037331;28;20408;-72
2022/09/01 05:20:49;;;;;;;2.30;1.55;;;15.10;97.50;;;;;;5033425;28;20108;-73
2022/09/01 05:23:18;;;;;;;3.20;1.65;;;15.10;97.60;;;;;;5033477;28;20432;-72
2022/09/01 05:25:45;;;;;;;2.25;1.60;;;15.10;97.60;;;;;;5016477;28;20087;-72
2022/09/01 05:28:11;;;;;;;4.25;1.70;;;15.10;97.60;;;;;;5032176;28;20516;-73
2022/09/01 05:30:39;;;;;;;2.45;1.67;;;15.20;97.60;;;;;;5026760;28;20049;-72
2022/09/01 05:33:10;;;;;;;4.70;1.80;;;15.20;97.60;;;;;;5026391;28;20120;-73
2022/09/01 05:35:43;;;;;;;3.28;1.60;;;15.20;97.60;;;;;;5033178;28;20064;-71
2022/09/01 05:38:12;;;;;;;3.20;2.07;;;15.20;97.70;;;;;;5032990;28;20436;-71
2022/09/01 05:40:42;;;;;;;1.75;1.35;;;15.20;97.60;;;;;;5038393;28;20029;-71
2022/09/01 05:43:11;;;;;;;3.70;1.90;;;15.20;97.60;;;;;;5032106;28;20108;-71
2022/09/01 05:45:44;;;;;;;3.30;2.00;;;15.20;97.70;;;;;;5029463;28;20030;-72
2022/09/01 05:48:11;;;;;;;3.72;2.00;;;15.20;97.60;;;;;;5035585;28;20453;-71
2022/09/01 05:50:45;;;;;;;4.10;1.80;;;15.30;97.60;;;;;;5032781;28;20025;-72
2022/09/01 05:53:16;;;;;;;4.35;1.58;;;15.30;97.60;;;;;;5039836;28;20556;-71
2022/09/01 05:55:45;;;;;;;2.67;1.63;;;15.30;97.60;;;;;;5044018;28;20111;-71
2022/09/01 05:58:13;;;;;;;2.60;1.60;;;15.30;97.60;;;;;;5028987;28;20524;-71
2022/09/01 06:00:48;;;;;;;5.28;1.80;;;15.40;97.60;;;;;;5019140;28;20053;-72
2022/09/01 06:03:16;;;;;;;3.75;1.90;;;15.40;97.70;;;;;;5030518;28;20033;-71
2022/09/01 06:05:43;;;;;;;3.22;1.90;;;15.40;97.60;;;;;;5030163;28;20053;-71
2022/09/01 06:08:12;;;;;;;3.35;1.90;;;15.50;97.60;;;;;;5018318;28;20070;-71
2022/09/01 06:10:38;;;;;;;3.65;2.42;;;15.50;97.60;;;;;;5031664;28;20037;-72
2022/09/01 06:13:08;;;;;;;4.82;2.22;;;15.60;97.60;;;;;;5032971;28;20033;-71
2022/09/01 06:15:37;;;;;;;5.38;2.15;;;15.60;97.60;;;;;;5034390;28;20106;-70
2022/09/01 06:18:05;;;;;;;2.65;1.40;;;15.60;97.50;;;;;;5035562;28;20063;-71
2022/09/01 06:20:31;;;;;;;2.75;1.60;;;15.70;97.50;;;;;;5033353;28;20105;-71
2022/09/01 06:22:57;;;;;;;3.38;1.60;;;15.70;97.50;;;;;;5039371;28;20461;-71
2022/09/01 06:25:25;;;;;;;3.63;1.67;;;15.70;97.50;;;;;;5045906;28;20032;-72
2022/09/01 06:27:51;;;;;;;4.25;1.70;;;15.80;97.40;;;;;;5038508;28;20029;-68
2022/09/01 06:30:23;;;;;;;1.85;1.30;;;15.90;97.40;;;;;;5021757;28;20037;-69
2022/09/01 06:32:50;;;;;;;2.70;1.70;;;15.90;97.30;;;;;;5030097;28;20048;-68
2022/09/01 06:35:16;;;;;;;2.30;1.45;;;15.90;97.30;;;;;;5026905;28;20835;-69
2022/09/01 06:37:44;;;;;;;3.63;1.75;;;16.00;97.30;;;;;;5025571;28;20106;-69
2022/09/01 06:40:17;;;;;;;2.25;1.33;;;16.10;97.30;;;;;;5024579;28;20064;-70
2022/09/01 06:42:46;;;;;;;3.25;1.50;;;16.10;97.20;;;;;;5031000;28;20108;-70
2022/09/01 06:45:16;;;;;;;2.97;1.40;;;16.20;97.20;;;;;;5011951;28;20064;-69
2022/09/01 06:47:43;;;;;;;2.55;1.52;;;16.20;97.20;;;;;;5020026;28;20037;-69
2022/09/01 06:50:13;;;;;;;4.63;2.10;;;16.30;97.10;;;;;;5031036;28;20112;-69
2022/09/01 06:52:42;;;;;;;7.57;1.80;;;16.30;97.10;;;;;;5023360;28;20036;-69
2022/09/01 06:55:13;;;;;;;3.00;1.60;;;16.40;97.00;;;;;;5029593;28;20029;-69
2022/09/01 06:57:40;;;;;;;3.35;1.42;;;16.50;96.90;;;;;;5014314;28;20021;-69
2022/09/01 07:00:19;;;;;;;3.60;1.60;;;16.50;96.90;;;;;;5030157;28;20037;-69
2022/09/01 07:02:53;;;;;;;2.40;1.40;;;16.50;96.80;;;;;;5026465;28;20037;-69
2022/09/01 07:05:20;;;;;;;3.30;1.50;;;16.60;96.80;;;;;;5018247;28;20029;-69
2022/09/01 07:07:50;;;;;;;3.20;1.45;;;16.60;96.70;;;;;;5027080;28;20311;-70
2022/09/01 07:10:21;;;;;;;5.03;1.40;;;16.70;96.60;;;;;;5016425;28;20033;-69
2022/09/01 07:12:51;;;;;;;2.25;1.58;;;16.70;96.50;;;;;;5018637;28;20021;-69
2022/09/01 07:15:18;;;;;;;3.60;1.58;;;16.80;96.40;;;;;;5030329;28;20033;-69
2022/09/01 07:17:51;;;;;;;3.17;1.60;;;16.80;96.40;;;;;;5023826;28;20475;-70
2022/09/01 07:20:19;;;;;;;1.63;1.50;;;16.90;96.40;;;;;;5023740;28;20445;-70
2022/09/01 07:22:46;;;;;;;1.85;1.20;;;16.90;96.20;;;;;;5025510;28;20033;-70
2022/09/01 07:25:12;;;;;;;2.25;1.30;;;17.00;96.00;;;;;;5031249;28;20112;-70
2022/09/01 07:27:49;;;;;;;3.60;1.65;;;17.00;95.90;;;;;;5028794;28;20105;-70
2022/09/01 07:30:17;;;;;;;2.20;1.50;;;17.10;95.90;;;;;;5029176;28;20065;-70
2022/09/01 07:32:43;;;;;;;1.92;1.20;;;17.10;95.90;;;;;;5026845;28;20037;-69
2022/09/01 07:35:13;;;;;;;4.05;1.65;;;17.20;95.80;;;;;;5027959;28;20049;-70
2022/09/01 07:37:38;;;;;;;4.95;1.80;;;17.20;95.50;;;;;;5030522;28;20038;-69
2022/09/01 07:40:10;;;;;;;6.35;2.08;;;17.30;95.30;;;;;;4997417;28;20043;-69
2022/09/01 07:42:39;;;;;;;2.45;1.30;;;17.30;95.20;;;;;;5028388;28;20144;-69
2022/09/01 07:45:09;;;;;;;2.65;1.80;;;17.40;95.20;;;;;;5028056;28;20042;-69
2022/09/01 07:47:35;;;;;;;2.53;1.25;;;17.40;95.00;;;;;;5030032;28;20053;-69
2022/09/01 07:50:07;;;;;;;2.22;1.20;;;17.40;94.70;;;;;;5025419;28;20092;-70
2022/09/01 07:52:34;;;;;;;3.25;1.30;;;17.50;94.60;;;;;;5028658;28;20033;-70
2022/09/01 07:55:00;;;;;;;3.40;1.40;;;17.50;94.50;;;;;;5027904;28;20039;-68
2022/09/01 07:57:26;;;;;;;1.65;1.13;;;17.60;94.60;;;;;;5029838;28;20022;-68
2022/09/01 07:59:54;;;;;;;3.83;1.50;;;17.60;94.50;;;;;;5022608;28;20548;-68
2022/09/01 08:02:20;;;;;;;3.42;1.90;;;17.60;94.60;;;;;;5025105;28;20053;-69
2022/09/01 08:04:45;;;;;;;3.10;2.08;;;17.70;94.10;;;;;;5028912;28;20061;-69
2022/09/01 08:07:11;;;;;;;2.42;1.33;;;17.70;93.80;;;;;;5010652;28;20062;-68
2022/09/01 08:09:37;;;;;;;1.15;0.95;;;17.70;93.70;;;;;;5019518;28;20040;-68
2022/09/01 08:12:05;;;;;;;1.83;1.13;;;17.80;93.80;;;;;;5030717;28;20039;-69
2022/09/01 08:14:31;;;;;;;2.42;1.75;;;17.80;93.60;;;;;;5013413;28;20124;-69
2022/09/01 08:16:56;;;;;;;1.85;1.13;;;17.80;93.50;;;;;;5011579;28;20112;-69
2022/09/01 08:19:22;;;;;;;1.90;1.17;;;17.90;93.50;;;;;;5019382;28;20476;-69
2022/09/01 08:21:47;;;;;;;2.25;1.10;;;17.90;93.40;;;;;;5023934;28;20025;-69
2022/09/01 08:24:13;;;;;;;2.55;1.20;;;18.00;93.40;;;;;;5028812;28;20040;-69
2022/09/01 08:26:39;;;;;;;2.72;1.42;;;18.10;93.10;;;;;;5031107;28;20101;-69
2022/09/01 08:29:04;;;;;;;1.63;1.13;;;18.10;92.90;;;;;;5030449;28;20065;-69
2022/09/01 08:31:31;;;;;;;3.60;1.20;;;18.10;92.70;;;;;;5029535;28;20404;-69
2022/09/01 08:33:57;;;;;;;2.00;1.20;;;18.20;92.80;;;;;;5034038;28;20029;-68
2022/09/01 08:36:23;;;;;;;3.03;1.35;;;18.30;92.90;;;;;;5033934;28;20029;-69
2022/09/01 08:38:49;;;;;;;1.80;1.20;;;18.30;92.70;;;;;;5031398;28;20044;-69
2022/09/01 08:41:41;;;;;;;2.55;1.30;;;18.30;92.20;;;;;;5030150;28;20036;-69
2022/09/01 08:44:50;;;;;;;2.95;1.65;;;18.30;91.80;;;;;;5018030;28;20488;-68
2022/09/01 08:47:18;;;;;;;3.88;1.63;;;18.40;91.90;;;;;;5033551;28;20033;-68
2022/09/01 08:49:45;;;;;;;2.75;1.70;;;18.40;91.00;;;;;;5029551;28;20033;-69
2022/09/01 08:52:34;;;;;;;2.08;1.45;;;18.40;91.20;;;;;;5012384;28;20041;-69
2022/09/01 08:55:15;;;;;;;6.25;1.80;;;18.50;90.80;;;;;;5029805;28;20051;-70
2022/09/01 08:57:44;;;;;;;2.42;1.30;;;18.50;91.10;;;;;;5034581;28;20037;-69
2022/09/01 09:00:13;;;;;;;6.07;1.90;;;18.60;90.90;;;;;;5031448;28;20057;-69
2022/09/01 09:03:07;;;;;;;3.38;1.90;;;18.60;90.50;;;;;;5027810;28;20104;-71
2022/09/01 09:05:39;;;;;;;2.10;1.27;;;18.60;90.20;;;;;;5015440;28;20034;-72
2022/09/01 09:08:27;;;;;;;4.10;1.65;;;18.70;90.40;;;;;;5022472;28;20042;-70
2022/09/01 09:11:21;;;;;;;3.08;1.33;;;18.80;90.30;;;;;;5034351;28;20373;-69
2022/09/01 09:13:58;;;;;;;1.75;1.30;;;18.80;90.00;;;;;;5014645;28;20044;-70
2022/09/01 09:16:49;;;;;;;2.03;1.00;;;18.90;90.00;;;;;;5032594;28;20539;-70
2022/09/01 09:19:32;;;;;;;2.25;1.13;;;19.00;88.60;;;;;;5032390;28;20034;-70
2022/09/01 09:22:01;;;;;;;1.98;1.10;;;19.10;88.90;;;;;;5013146;28;20056;-70
2022/09/01 09:24:54;;;;;;;2.70;1.52;;;19.10;88.60;;;;;;5033494;28;20279;-70
2022/09/01 09:27:29;;;;;;;2.50;1.05;;;19.20;88.50;;;;;;5028824;28;20030;-70
2022/09/01 09:30:02;;;;;;;2.97;1.40;;;19.20;88.20;;;;;;5019189;28;20095;-69
2022/09/01 09:32:59;;;;;;;2.67;1.13;;;19.30;88.20;;;;;;5027004;28;20373;-69
2022/09/01 09:35:35;;;;;;;2.55;1.30;;;19.40;88.00;;;;;;5033624;28;20092;-70
2022/09/01 09:38:18;;;;;;;1.85;1.30;;;19.50;87.90;;;;;;5014351;28;20027;-69
2022/09/01 09:41:14;;;;;;;2.80;1.50;;;19.60;87.90;;;;;;5034139;28;20347;-69
2022/09/01 09:43:48;;;;;;;4.18;2.20;;;19.70;87.90;;;;;;5033397;28;20473;-69
2022/09/01 09:46:39;;;;;;;3.38;1.45;;;19.80;87.20;;;;;;5033140;28;20068;-69
2022/09/01 09:49:18;;;;;;;1.15;1.02;;;19.80;87.30;;;;;;5034127;28;20041;-69
2022/09/01 09:51:48;;;;;;;1.38;1.00;;;19.90;86.70;;;;;;5034044;28;20064;-71
2022/09/01 09:54:28;;;;;;;2.88;1.10;;;20.00;85.90;;;;;;5026973;28;20520;-68
2022/09/01 09:57:12;;;;;;;4.22;1.13;;;20.10;86.20;;;;;;5016556;28;20048;-69
2022/09/01 09:59:46;;;;;;;3.45;1.05;;;20.20;86.30;;;;;;5033145;28;20026;-69
2022/09/01 10:02:33;;;;;;;1.58;1.10;;;20.30;84.90;;;;;;5024160;28;20026;-68
2022/09/01 10:05:47;;;;;;;1.65;1.00;;;20.30;84.70;;;;;;5024239;28;20030;-69
2022/09/01 10:08:43;;;;;;;1.23;1.10;;;20.40;84.30;;;;;;5010100;28;20046;-69
2022/09/01 10:11:12;;;;;;;2.40;1.10;;;20.40;83.60;;;;;;5007317;28;20049;-69
2022/09/01 10:13:38;;;;;;;4.10;1.10;;;20.40;83.80;;;;;;5029636;28;20037;-68
2022/09/01 10:16:08;;;;;;;2.00;1.15;;;20.40;83.40;;;;;;5033369;28;20507;-69
2022/09/01 10:18:43;;;;;;;4.07;1.10;;;20.50;83.60;;;;;;5014935;28;20108;-69
2022/09/01 10:21:14;;;;;;;2.80;1.10;;;20.50;82.60;;;;;;5033350;28;20468;-70
2022/09/01 10:23:42;;;;;;;1.30;0.90;;;20.60;81.50;;;;;;5014764;28;20111;-70
2022/09/01 10:26:15;;;;;;;1.85;0.95;;;20.60;81.00;;;;;;5027452;28;20037;-70
2022/09/01 10:28:55;;;;;;;1.70;1.00;;;20.70;80.20;;;;;;5014763;28;20046;-70
2022/09/01 10:31:21;;;;;;;4.80;2.20;;;20.70;80.80;;;;;;5032076;28;20057;-71
2022/09/01 10:33:48;;;;;;;6.13;2.88;;;20.80;79.40;;;;;;5024565;28;20068;-70
2022/09/01 10:36:15;;;;;;;4.75;2.08;;;20.90;79.10;;;;;;5013850;28;20034;-69
2022/09/01 10:38:42;;;;;;;1.98;1.20;;;20.90;78.80;;;;;;5025058;28;20037;-70
2022/09/01 10:41:08;;;;;;;3.08;1.55;;;20.90;78.60;;;;;;5031196;28;20112;-69
2022/09/01 10:43:47;;;;;;;1.48;0.90;;;20.90;78.80;;;;;;5032060;28;20113;-69
2022/09/01 10:46:22;;;;;;;2.33;1.40;;;21.00;78.10;;;;;;5025538;28;20029;-70
2022/09/01 10:48:53;;;;;;;1.55;1.17;;;21.00;78.50;;;;;;5035920;28;20044;-70
2022/09/01 10:51:18;;;;;;;3.28;1.10;;;21.00;78.30;;;;;;5030104;28;20021;-70
2022/09/01 10:53:48;;;;;;;1.75;1.50;;;21.00;78.20;;;;;;5044333;28;20038;-70
2022/09/01 10:56:38;;;;;;;1.52;0.93;;;21.00;77.40;;;;;;5046731;28;20097;-71
2022/09/01 10:59:25;;;;;;;3.83;1.02;;;20.90;77.00;;;;;;5047556;28;20413;-69
2022/09/01 11:01:51;;;;;;;1.85;1.05;;;20.90;77.60;;;;;;5044963;28;20026;-69
2022/09/01 11:04:42;;;;;;;1.80;1.20;;;21.00;77.50;;;;;;5039141;28;20037;-70
2022/09/01 11:07:22;;;;;;;2.05;1.10;;;21.10;77.80;;;;;;5038879;28;20037;-70
2022/09/01 11:10:32;;;;;;;3.08;1.00;;;21.30;77.70;;;;;;5051553;28;20487;-70
2022/09/01 11:13:23;;;;;;;1.27;0.85;;;21.40;77.00;;;;;;5031336;28;20033;-70
2022/09/01 11:15:49;;;;;;;1.02;0.80;;;21.50;76.40;;;;;;5032637;28;20048;-70
2022/09/01 11:18:16;;;;;;;1.40;1.00;;;21.50;75.90;;;;;;5032833;28;20033;-70
2022/09/01 11:20:43;;;;;;;1.65;0.98;;;21.70;74.80;;;;;;5019521;28;20034;-70
2022/09/01 11:23:30;;;;;;;4.32;0.90;;;21.70;74.70;;;;;;5023700;28;20026;-71
2022/09/01 11:26:21;;;;;;;2.25;1.00;;;21.80;73.20;;;;;;5032425;28;20034;-70
2022/09/01 11:28:48;;;;;;;2.45;1.05;;;21.70;72.60;;;;;;5030774;28;20432;-71
2022/09/01 11:31:25;;;;;;;1.67;1.00;;;21.60;73.10;;;;;;5032213;28;20040;-71
2022/09/01 11:33:55;;;;;;;0.95;0.75;;;21.60;73.10;;;;;;5027472;28;20535;-70
2022/09/01 11:36:28;;;;;;;3.47;1.55;;;21.50;72.90;;;;;;5012130;28;20140;-70
2022/09/01 11:39:05;;;;;;;1.70;1.20;;;21.50;73.20;;;;;;5014610;28;20485;-70
2022/09/01 11:41:50;;;;;;;1.45;0.90;;;21.40;72.80;;;;;;4996035;28;20053;-70
2022/09/01 11:44:22;;;;;;;1.70;1.10;;;21.50;72.50;;;;;;5028347;28;20496;-71
2022/09/01 11:46:50;;;;;;;2.30;1.00;;;21.60;73.30;;;;;;5012706;28;20033;-70
2022/09/01 11:49:32;;;;;;;1.33;0.77;;;21.70;73.00;;;;;;5015960;28;20114;-71
2022/09/01 11:51:59;;;;;;;2.20;1.20;;;21.90;73.10;;;;;;5013085;28;20026;-70
2022/09/01 11:54:26;;;;;;;1.90;1.17;;;22.00;72.20;;;;;;5030606;28;20030;-71
2022/09/01 11:56:52;;;;;;;1.60;0.85;;;22.00;71.60;;;;;;5031698;28;20057;-70
2022/09/01 11:59:35;;;;;;;0.90;0.73;;;22.10;71.10;;;;;;5030623;28;20025;-70
2022/09/01 12:02:02;;;;;;;2.45;1.10;;;22.10;71.50;;;;;;5031629;28;20036;-70
2022/09/01 12:04:36;;;;;;;1.17;1.00;;;22.10;70.50;;;;;;5012144;28;20396;-71
2022/09/01 12:07:05;;;;;;;1.83;1.20;;;22.10;69.50;;;;;;5032895;28;20025;-71
2022/09/01 12:09:50;;;;;;;1.77;1.00;;;22.10;69.30;;;;;;5034161;28;20068;-71
2022/09/01 12:12:38;;;;;;;0.98;0.70;;;22.00;69.50;;;;;;5033958;28;20022;-71
2022/09/01 12:15:22;;;;;;;1.75;1.10;;;22.00;69.20;;;;;;5015741;28;20500;-71
2022/09/01 12:17:48;;;;;;;3.25;0.90;;;22.00;69.20;;;;;;5003375;28;20033;-70
2022/09/01 12:20:33;;;;;;;1.33;0.90;;;22.00;69.70;;;;;;5035214;28;20124;-71
2022/09/01 12:23:01;;;;;;;1.45;0.80;;;22.20;70.50;;;;;;5034327;28;20159;-71
2022/09/01 12:25:32;;;;;;;1.10;0.77;;;22.20;69.50;;;;;;5032710;28;20396;-70
2022/09/01 12:28:07;;;;;;;4.25;1.27;;;22.20;69.00;;;;;;4999044;28;20034;-70
2022/09/01 12:30:34;;;;;;;1.98;1.08;;;22.20;69.80;;;;;;5015234;28;20095;-70
2022/09/01 12:33:04;;;;;;;1.67;0.65;;;22.20;69.70;;;;;;5028289;28;20029;-71
2022/09/01 12:35:30;;;;;;;2.40;1.00;;;22.20;69.50;;;;;;5035279;28;20041;-71
2022/09/01 12:38:17;;;;;;;3.13;1.10;;;22.10;69.80;;;;;;5034164;28;20480;-70
2022/09/01 12:40:44;;;;;;;3.20;1.23;;;22.10;69.60;;;;;;5034507;28;20033;-71
2022/09/01 12:43:11;;;;;;;2.35;1.10;;;22.10;69.90;;;;;;5033176;28;20034;-70
2022/09/01 12:45:41;;;;;;;2.78;1.00;;;22.00;69.70;;;;;;5035280;28;20064;-70
2022/09/01 12:48:22;;;;;;;1.70;1.20;;;22.00;70.10;;;;;;5035199;28;20036;-70
2022/09/01 12:50:49;;;;;;;3.50;1.20;;;22.00;70.80;;;;;;5034649;28;20122;-71
2022/09/01 12:53:18;;;;;;;2.35;1.05;;;21.90;70.60;;;;;;5033862;28;20017;-71
2022/09/01 12:55:58;;;;;;;2.83;1.10;;;21.80;70.80;;;;;;5034594;28;20442;-71
2022/09/01 12:58:26;;;;;;;1.38;0.90;;;21.80;70.90;;;;;;5025361;28;20147;-70
2022/09/01 13:01:08;;;;;;;1.75;1.02;;;21.80;71.40;;;;;;5034665;28;20026;-70
2022/09/01 13:03:34;;;;;;;1.83;1.13;;;21.90;71.40;;;;;;5013897;28;20025;-70
2022/09/01 13:06:02;;;;;;;1.58;0.80;;;21.90;71.60;;;;;;5014628;28;20030;-70
2022/09/01 13:08:33;;;;;;;2.70;1.00;;;21.90;71.50;;;;;;4998087;28;20022;-71
2022/09/01 13:11:01;;;;;;;1.13;0.90;;;21.90;72.20;;;;;;5014885;28;20036;-70
2022/09/01 13:13:28;;;;;;;1.45;1.00;;;22.00;71.10;;;;;;5024160;28;20072;-71